Time;durP1;ratioP1;P1;durP2;ratioP2;P2;SDS_P1;SDS_P2;PMS_P1;PMS_P2;Temp;Humidity;BMP_temperature;BMP_pressure;BME280_temperature;BME280_humidity;BME280_pressure;Samples;Min_cycle;Max_cycle;Signal;HPM_P1;HPM_P2
2022/05/26 00:01:08;;;;;;;47.00;31.90;;;11.20;99.90;;;;;;5054163;28;20392;-51
2022/05/26 00:03:38;;;;;;;;;;;11.10;99.90;;;;;;5053989;28;20028;-50
2022/05/26 00:06:06;;;;;;;49.90;32.35;;;11.20;99.90;;;;;;5054010;28;19948;-53
2022/05/26 00:08:36;;;;;;;50.92;31.90;;;11.20;99.90;;;;;;5053816;28;20037;-51
2022/05/26 00:11:04;;;;;;;52.80;32.92;;;11.20;99.90;;;;;;5053699;28;20037;-50
2022/05/26 00:13:30;;;;;;;51.03;32.30;;;11.10;99.90;;;;;;5053368;28;20021;-52
2022/05/26 00:15:56;;;;;;;50.63;32.03;;;11.10;99.90;;;;;;5053774;28;20486;-50
2022/05/26 00:18:22;;;;;;;48.58;32.35;;;11.10;99.90;;;;;;5053227;28;20021;-51
2022/05/26 00:20:48;;;;;;;54.50;33.03;;;11.10;99.90;;;;;;5053603;28;20120;-52
2022/05/26 00:23:13;;;;;;;52.50;30.63;;;11.10;99.90;;;;;;5053578;28;20027;-52
2022/05/26 00:25:39;;;;;;;49.38;32.42;;;11.10;99.90;;;;;;5053244;28;20112;-52
2022/05/26 00:28:05;;;;;;;46.58;30.95;;;11.10;99.90;;;;;;5053378;28;20029;-51
2022/05/26 00:30:32;;;;;;;58.72;31.45;;;11.10;99.90;;;;;;5052841;28;20041;-50
2022/05/26 00:32:59;;;;;;;51.53;31.23;;;11.10;99.90;;;;;;5053259;28;20502;-50
2022/05/26 00:35:25;;;;;;;54.55;32.75;;;11.00;99.90;;;;;;5053091;28;20029;-52
2022/05/26 00:37:51;;;;;;;50.38;31.73;;;10.90;99.90;;;;;;5053293;28;20036;-51
2022/05/26 00:40:18;;;;;;;59.15;34.92;;;10.90;99.90;;;;;;5053022;28;20025;-51
2022/05/26 00:42:45;;;;;;;52.30;33.15;;;10.80;99.90;;;;;;5053050;28;20424;-51
2022/05/26 00:45:11;;;;;;;54.47;34.03;;;10.80;99.90;;;;;;5053203;28;20033;-51
2022/05/26 00:47:44;;;;;;;60.55;35.97;;;10.70;99.90;;;;;;5053173;28;20103;-51
2022/05/26 00:50:20;;;;;;;59.55;36.15;;;10.70;99.90;;;;;;5053011;28;20112;-50
2022/05/26 00:53:07;;;;;;;59.47;33.63;;;10.70;99.90;;;;;;5052968;28;20032;-50
2022/05/26 00:55:42;;;;;;;57.53;34.03;;;10.70;99.90;;;;;;5052209;28;20021;-50
2022/05/26 00:58:30;;;;;;;53.72;34.72;;;10.80;99.90;;;;;;5052563;28;20468;-50
2022/05/26 01:00:58;;;;;;;53.58;33.05;;;10.70;99.90;;;;;;5052917;28;20028;-50
2022/05/26 01:03:33;;;;;;;55.13;33.30;;;10.80;99.90;;;;;;5052771;28;20044;-50
2022/05/26 01:06:34;;;;;;;52.20;31.30;;;10.80;99.90;;;;;;5052456;28;20106;-50
2022/05/26 01:09:02;;;;;;;58.92;33.83;;;10.80;99.90;;;;;;5052443;28;20032;-50
2022/05/26 01:11:31;;;;;;;56.28;34.08;;;10.70;99.90;;;;;;5052513;28;20036;-50
2022/05/26 01:14:25;;;;;;;50.63;31.52;;;10.80;99.90;;;;;;5052353;28;20473;-50
2022/05/26 01:17:19;;;;;;;48.10;31.52;;;10.80;99.90;;;;;;5052416;28;20045;-51
2022/05/26 01:19:57;;;;;;;49.65;31.13;;;10.80;99.90;;;;;;5052307;28;20464;-50
2022/05/26 01:22:45;;;;;;;44.45;29.20;;;10.80;99.90;;;;;;5052539;28;20025;-51
2022/05/26 01:25:23;;;;;;;54.47;33.15;;;10.90;99.90;;;;;;5052376;28;20032;-51
2022/05/26 01:28:18;;;;;;;47.13;29.30;;;10.90;99.90;;;;;;5051665;28;20032;-50
2022/05/26 01:31:06;;;;;;;51.08;29.27;;;10.90;99.90;;;;;;5052148;28;20053;-50
2022/05/26 01:33:38;;;;;;;43.17;27.33;;;11.00;99.90;;;;;;5052117;28;20552;-50
2022/05/26 01:36:28;;;;;;;45.45;28.27;;;11.00;99.90;;;;;;5052378;28;20025;-51
2022/05/26 01:39:36;;;;;;;40.55;25.77;;;11.10;99.90;;;;;;5051713;28;20021;-50
2022/05/26 01:42:25;;;;;;;39.45;26.58;;;11.10;99.90;;;;;;5052198;28;20104;-51
2022/05/26 01:45:12;;;;;;;39.38;25.20;;;11.20;99.90;;;;;;5052040;28;20499;-50
2022/05/26 01:47:55;;;;;;;40.05;25.88;;;11.20;99.90;;;;;;5051837;28;20029;-50
2022/05/26 01:50:29;;;;;;;42.63;26.60;;;11.20;99.90;;;;;;5052088;28;20074;-50
2022/05/26 01:53:27;;;;;;;41.95;25.90;;;11.20;99.90;;;;;;5051771;28;20037;-50
2022/05/26 01:56:16;;;;;;;37.40;25.27;;;11.20;99.90;;;;;;5051792;28;20074;-52
2022/05/26 01:58:45;;;;;;;38.20;24.20;;;11.20;99.90;;;;;;5050986;28;20048;-50
2022/05/26 02:01:19;;;;;;;42.28;24.48;;;11.20;99.90;;;;;;5051966;28;20464;-50
2022/05/26 02:03:48;;;;;;;38.75;24.60;;;11.20;99.90;;;;;;5050363;28;20029;-51
2022/05/26 02:06:22;;;;;;;37.58;23.55;;;11.20;99.90;;;;;;5051063;28;20028;-51
2022/05/26 02:09:05;;;;;;;36.63;24.58;;;11.10;99.90;;;;;;5051518;28;20033;-50
2022/05/26 02:11:33;;;;;;;35.85;23.70;;;11.10;99.90;;;;;;5051828;28;20087;-52
2022/05/26 02:14:11;;;;;;;43.42;23.85;;;11.10;99.90;;;;;;5051245;28;20036;-51
2022/05/26 02:16:57;;;;;;;40.90;23.20;;;11.10;99.90;;;;;;5050389;28;20029;-52
2022/05/26 02:19:31;;;;;;;37.58;24.15;;;11.10;99.90;;;;;;5050884;28;20033;-51
2022/05/26 02:22:21;;;;;;;41.88;24.50;;;11.00;99.90;;;;;;5051719;28;20021;-51
2022/05/26 02:25:01;;;;;;;36.50;22.08;;;11.00;99.90;;;;;;5051248;28;20048;-53
2022/05/26 02:27:28;;;;;;;35.88;23.25;;;11.00;99.90;;;;;;5051296;28;20535;-51
2022/05/26 02:29:56;;;;;;;40.45;23.30;;;11.00;99.90;;;;;;5051105;28;20041;-52
2022/05/26 02:32:36;;;;;;;33.38;23.27;;;11.00;99.90;;;;;;5051177;28;20033;-52
2022/05/26 02:35:26;;;;;;;36.15;22.15;;;11.10;99.90;;;;;;5051410;28;20029;-51
2022/05/26 02:37:56;;;;;;;41.42;22.55;;;11.10;99.90;;;;;;5048057;28;20476;-50
2022/05/26 02:40:22;;;;;;;34.35;21.17;;;11.00;99.90;;;;;;5051571;28;20056;-50
2022/05/26 02:42:54;;;;;;;35.33;23.15;;;11.10;99.90;;;;;;5051093;28;20057;-51
2022/05/26 02:45:35;;;;;;;33.20;21.60;;;11.00;99.90;;;;;;5051093;28;20025;-51
2022/05/26 02:48:14;;;;;;;33.05;21.05;;;11.00;99.90;;;;;;5051107;28;20021;-52
2022/05/26 02:50:57;;;;;;;38.83;21.05;;;11.00;99.90;;;;;;5051455;28;20040;-50
2022/05/26 02:53:39;;;;;;;32.80;20.95;;;10.90;99.90;;;;;;5051205;28;20029;-50
2022/05/26 02:56:42;;;;;;;37.05;23.15;;;10.90;99.90;;;;;;5051022;28;20023;-50
2022/05/26 02:59:32;;;;;;;34.97;22.27;;;11.00;99.90;;;;;;5051026;28;20104;-51
2022/05/26 03:02:13;;;;;;;34.88;20.90;;;11.00;99.90;;;;;;5051360;28;20021;-50
2022/05/26 03:04:43;;;;;;;34.83;21.90;;;10.90;99.90;;;;;;5050964;28;20028;-50
2022/05/26 03:07:15;;;;;;;36.78;22.42;;;11.00;99.90;;;;;;5050794;28;20132;-51
2022/05/26 03:09:42;;;;;;;41.70;23.30;;;11.00;99.90;;;;;;5050890;28;20456;-51
2022/05/26 03:12:28;;;;;;;35.53;22.83;;;11.00;99.90;;;;;;5051160;28;20037;-52
2022/05/26 03:14:55;;;;;;;34.88;22.48;;;11.00;99.90;;;;;;5050337;28;20021;-51
2022/05/26 03:17:21;;;;;;;37.17;23.10;;;11.00;99.90;;;;;;5052073;28;20079;-52
2022/05/26 03:19:47;;;;;;;38.17;22.55;;;11.00;99.90;;;;;;5054565;28;20465;-50
2022/05/26 03:22:13;;;;;;;40.00;22.00;;;11.00;99.90;;;;;;5054658;28;20124;-52
2022/05/26 03:24:39;;;;;;;39.05;22.65;;;11.00;99.90;;;;;;5054494;28;20100;-51
2022/05/26 03:27:05;;;;;;;33.83;22.08;;;11.00;99.90;;;;;;5054845;28;20058;-51
2022/05/26 03:29:31;;;;;;;33.80;20.90;;;11.10;99.90;;;;;;5054317;28;20031;-51
2022/05/26 03:31:57;;;;;;;34.28;21.35;;;11.00;99.90;;;;;;5054249;28;20057;-50
2022/05/26 03:42:37;;;;;;;38.90;21.75;;;11.20;99.90;;;;;;5054294;28;20032;-50
2022/05/26 03:45:05;;;;;;;35.28;21.90;;;11.20;99.90;;;;;;5054189;28;20025;-51
2022/05/26 03:47:31;;;;;;;31.05;19.80;;;11.20;99.90;;;;;;5053956;28;20055;-50
2022/05/26 03:49:57;;;;;;;34.58;21.45;;;11.20;99.90;;;;;;5053998;28;20447;-51
2022/05/26 03:52:23;;;;;;;36.45;20.13;;;11.30;99.90;;;;;;5054326;28;20037;-51
2022/05/26 03:54:49;;;;;;;33.20;19.95;;;11.30;99.90;;;;;;5053832;28;20025;-52
2022/05/26 03:57:23;;;;;;;35.50;20.15;;;11.30;99.90;;;;;;5054022;28;20033;-51
2022/05/26 03:59:48;;;;;;;33.58;19.38;;;11.40;99.90;;;;;;5052690;28;20418;-50
2022/05/26 04:02:14;;;;;;;33.55;20.67;;;11.40;99.90;;;;;;5053802;28;20025;-53
2022/05/26 04:04:39;;;;;;;29.05;18.92;;;11.40;99.90;;;;;;5053587;28;20420;-51
2022/05/26 04:07:05;;;;;;;36.10;20.77;;;11.40;99.90;;;;;;5053730;28;20025;-52
2022/05/26 04:09:31;;;;;;;36.30;18.88;;;11.40;99.90;;;;;;5054005;28;20407;-50
2022/05/26 04:11:56;;;;;;;38.40;21.17;;;11.40;99.90;;;;;;5053855;28;20071;-52
2022/05/26 04:14:22;;;;;;;34.00;19.90;;;11.40;99.90;;;;;;5053383;28;20036;-51
2022/05/26 04:16:48;;;;;;;29.95;18.92;;;11.40;99.90;;;;;;5053668;28;20021;-51
2022/05/26 04:19:13;;;;;;;28.27;18.10;;;11.50;99.90;;;;;;5053392;28;20032;-52
2022/05/26 04:22:14;;;;;;;28.02;18.55;;;11.60;99.90;;;;;;5054040;28;20392;-51
2022/05/26 04:24:28;;;;;;;29.70;17.95;;;11.70;99.90;;;;;;5053170;28;20086;-50
2022/05/26 04:26:53;;;;;;;27.13;18.23;;;11.80;99.90;;;;;;5053496;28;20478;-51
2022/05/26 04:29:23;;;;;;;32.85;17.90;;;11.90;99.90;;;;;;5053290;28;20550;-50
2022/05/26 04:31:52;;;;;;;27.30;16.98;;;12.00;99.90;;;;;;5053149;28;20164;-51
2022/05/26 04:34:18;;;;;;;27.15;17.90;;;12.00;99.90;;;;;;5052845;28;20457;-51
2022/05/26 04:36:44;;;;;;;24.40;16.27;;;12.10;99.90;;;;;;5053602;28;20039;-51
2022/05/26 04:39:10;;;;;;;26.50;17.73;;;12.20;99.90;;;;;;5053260;28;20876;-52
2022/05/26 04:41:36;;;;;;;39.05;17.20;;;12.30;99.90;;;;;;5052221;28;20039;-51
2022/05/26 04:44:01;;;;;;;27.55;16.67;;;12.30;99.90;;;;;;5052984;28;20086;-52
2022/05/26 04:46:27;;;;;;;28.20;16.08;;;12.40;99.90;;;;;;5053093;28;20452;-51
2022/05/26 04:48:53;;;;;;;25.25;16.42;;;12.30;99.90;;;;;;5052880;28;20422;-51
2022/05/26 04:51:18;;;;;;;27.80;17.85;;;12.40;99.90;;;;;;5053016;28;20488;-50
2022/05/26 04:53:45;;;;;;;28.73;17.40;;;12.40;99.90;;;;;;5053129;28;20025;-51
2022/05/26 04:56:10;;;;;;;25.92;17.30;;;12.50;99.90;;;;;;5052726;28;20440;-51
2022/05/26 04:58:36;;;;;;;26.58;16.50;;;12.50;99.90;;;;;;5052701;28;20059;-50
2022/05/26 05:01:15;;;;;;;24.13;16.58;;;12.50;99.90;;;;;;5053013;28;20052;-52
2022/05/26 05:03:41;;;;;;;27.88;16.67;;;12.60;99.90;;;;;;5052890;28;20441;-50
2022/05/26 05:06:07;;;;;;;30.73;18.27;;;12.60;99.90;;;;;;5052590;28;20414;-51
2022/05/26 05:08:33;;;;;;;24.85;15.90;;;12.70;99.90;;;;;;5052488;28;20017;-52
2022/05/26 05:10:59;;;;;;;27.73;15.77;;;12.70;99.90;;;;;;5052621;28;20032;-51
2022/05/26 05:13:24;;;;;;;24.48;16.13;;;12.80;99.90;;;;;;5052491;28;20041;-51
2022/05/26 05:15:58;;;;;;;22.95;14.80;;;12.80;99.90;;;;;;5052171;28;20181;-51
2022/05/26 05:18:24;;;;;;;24.58;17.48;;;12.90;99.90;;;;;;5052494;28;20032;-51
2022/05/26 05:20:52;;;;;;;24.02;14.43;;;13.00;99.90;;;;;;5052415;28;20025;-52
2022/05/26 05:23:17;;;;;;;22.77;15.05;;;13.00;99.90;;;;;;5052399;28;20029;-51
2022/05/26 05:25:47;;;;;;;23.48;13.88;;;13.20;99.90;;;;;;5052795;28;20024;-51
2022/05/26 05:28:41;;;;;;;23.67;13.50;;;13.20;99.90;;;;;;5051930;28;20474;-50
2022/05/26 05:31:07;;;;;;;22.23;13.48;;;13.30;99.90;;;;;;5051142;28;20056;-50
2022/05/26 05:33:39;;;;;;;20.88;13.57;;;13.40;99.90;;;;;;5052340;28;20366;-49
2022/05/26 05:36:27;;;;;;;22.33;13.27;;;13.40;99.90;;;;;;5052520;28;20115;-51
2022/05/26 05:38:54;;;;;;;18.70;12.73;;;13.50;99.90;;;;;;5051847;28;20056;-50
2022/05/26 05:41:20;;;;;;;23.00;13.45;;;13.60;99.90;;;;;;5051531;28;20491;-51
2022/05/26 05:43:47;;;;;;;19.33;12.82;;;13.60;99.90;;;;;;5051893;28;20037;-52
2022/05/26 05:46:14;;;;;;;19.50;12.00;;;13.70;99.90;;;;;;5052131;28;20120;-50
2022/05/26 05:48:43;;;;;;;19.52;12.23;;;13.80;99.90;;;;;;5051734;28;20031;-51
2022/05/26 05:51:12;;;;;;;19.80;12.45;;;13.90;99.90;;;;;;5051748;28;20044;-52
2022/05/26 05:53:38;;;;;;;18.40;12.18;;;13.90;99.90;;;;;;5051785;28;20553;-50
2022/05/26 05:56:05;;;;;;;17.83;11.70;;;14.00;99.90;;;;;;5051794;28;20036;-52
2022/05/26 05:58:30;;;;;;;21.98;13.40;;;14.10;99.90;;;;;;5051413;28;20028;-52
2022/05/26 06:00:56;;;;;;;17.48;11.90;;;14.10;99.90;;;;;;5051534;28;20032;-51
2022/05/26 06:03:22;;;;;;;17.77;11.70;;;14.30;99.90;;;;;;5051671;28;20021;-53
2022/05/26 06:05:48;;;;;;;18.92;12.13;;;14.30;99.90;;;;;;5051563;28;20025;-51
2022/05/26 06:08:14;;;;;;;17.08;10.23;;;14.50;99.90;;;;;;5051382;28;20384;-52
2022/05/26 06:10:40;;;;;;;17.25;9.98;;;14.50;99.90;;;;;;5051381;28;20295;-51
2022/05/26 06:13:05;;;;;;;14.52;9.23;;;14.60;99.90;;;;;;5051357;28;20031;-50
2022/05/26 06:15:33;;;;;;;21.27;10.73;;;14.70;99.90;;;;;;5051556;28;20017;-51
2022/05/26 06:18:00;;;;;;;14.23;9.80;;;14.80;99.90;;;;;;5051211;28;20044;-51
2022/05/26 06:20:26;;;;;;;16.00;8.68;;;14.80;99.90;;;;;;5051278;28;20029;-51
2022/05/26 06:22:52;;;;;;;14.73;10.00;;;14.90;99.90;;;;;;5051224;28;20372;-50
2022/05/26 06:25:20;;;;;;;12.70;8.60;;;14.90;99.90;;;;;;5051562;28;20028;-50
2022/05/26 06:30:31;;;;;;;13.77;8.68;;;15.10;99.90;;;;;;5051078;28;20553;-51
2022/05/26 06:38:36;;;;;;;10.95;6.22;;;15.30;99.90;;;;;;5051541;28;20392;-51
2022/05/26 06:43:52;;;;;;;10.32;5.30;;;15.60;99.90;;;;;;5049901;28;20040;-52
2022/05/26 06:46:18;;;;;;;9.20;5.50;;;15.70;99.90;;;;;;5051131;28;20017;-50
2022/05/26 06:48:45;;;;;;;7.95;4.95;;;15.70;99.90;;;;;;5050796;28;20029;-51
2022/05/26 06:51:11;;;;;;;13.47;5.33;;;15.90;99.90;;;;;;5050843;28;20041;-50
2022/05/26 06:53:38;;;;;;;7.82;4.93;;;15.90;99.90;;;;;;5054335;28;20161;-51
2022/05/26 06:56:04;;;;;;;;;;;15.90;99.90;;;;;;5055311;28;20037;-50
2022/05/26 06:58:31;;;;;;;6.78;3.95;;;16.00;99.90;;;;;;5054760;28;19962;-52
2022/05/26 07:00:57;;;;;;;9.20;4.35;;;16.10;99.90;;;;;;5055141;28;20032;-51
2022/05/26 07:03:23;;;;;;;8.35;3.53;;;16.30;99.90;;;;;;5055012;28;20033;-52
2022/05/26 07:05:50;;;;;;;6.00;3.67;;;16.40;99.90;;;;;;5054993;28;20033;-50
2022/05/26 07:08:17;;;;;;;6.57;3.25;;;16.70;99.90;;;;;;5054719;28;20051;-50
2022/05/26 07:10:45;;;;;;;8.23;2.88;;;16.60;99.90;;;;;;5054839;28;20037;-53
2022/05/26 07:13:10;;;;;;;4.65;3.13;;;16.80;99.90;;;;;;5054580;28;20037;-51
2022/05/26 07:15:36;;;;;;;5.85;3.30;;;16.80;99.90;;;;;;5054691;28;20021;-52
2022/05/26 07:18:06;;;;;;;5.60;2.95;;;16.80;99.90;;;;;;5053053;28;20040;-50
2022/05/26 07:20:33;;;;;;;7.03;3.70;;;16.80;99.90;;;;;;5054456;28;20025;-52
2022/05/26 07:22:59;;;;;;;6.05;3.38;;;17.00;99.90;;;;;;5054325;28;20040;-51
2022/05/26 07:25:25;;;;;;;4.43;2.55;;;17.00;99.90;;;;;;5054455;28;20484;-52
2022/05/26 07:27:51;;;;;;;6.40;3.53;;;17.00;99.90;;;;;;5054332;28;20025;-53
2022/05/26 07:30:17;;;;;;;5.50;2.40;;;17.10;99.90;;;;;;5054437;28;20519;-51
2022/05/26 07:32:42;;;;;;;3.22;1.88;;;17.30;99.90;;;;;;5054265;28;20112;-51
2022/05/26 07:35:08;;;;;;;6.97;2.35;;;17.30;99.90;;;;;;5054195;28;20039;-51
2022/05/26 07:43:05;;;;;;;4.90;2.67;;;17.40;99.90;;;;;;5054173;28;20036;-52
2022/05/26 07:45:30;;;;;;;4.43;2.05;;;17.40;99.90;;;;;;5053873;28;20384;-53
2022/05/26 07:47:57;;;;;;;3.75;2.15;;;17.50;99.90;;;;;;5053976;28;20040;-51
2022/05/26 07:50:22;;;;;;;8.45;2.58;;;17.60;99.90;;;;;;5054000;28;20044;-53
2022/05/26 07:52:49;;;;;;;8.05;3.85;;;17.60;99.90;;;;;;5053895;28;20029;-51
2022/05/26 07:55:16;;;;;;;5.38;2.22;;;17.60;99.90;;;;;;5054192;28;20071;-52
2022/05/26 07:57:42;;;;;;;4.45;2.00;;;17.50;99.90;;;;;;5053644;28;20059;-52
2022/05/26 08:00:08;;;;;;;4.88;2.13;;;17.70;99.90;;;;;;5054105;28;20025;-53
2022/05/26 08:02:33;;;;;;;5.53;2.88;;;17.60;99.90;;;;;;5053257;28;20031;-52
2022/05/26 08:04:59;;;;;;;5.70;2.30;;;17.70;99.90;;;;;;5053973;28;20017;-51
2022/05/26 08:07:25;;;;;;;4.90;1.83;;;17.70;99.90;;;;;;5053560;28;20036;-52
2022/05/26 08:09:51;;;;;;;8.70;2.90;;;17.90;99.90;;;;;;5053681;28;20021;-52
2022/05/26 08:12:16;;;;;;;3.53;2.00;;;17.90;99.90;;;;;;5053819;28;20056;-51
2022/05/26 08:14:43;;;;;;;6.65;2.08;;;17.90;99.90;;;;;;5053449;28;20021;-51
2022/05/26 08:17:13;;;;;;;6.70;2.08;;;17.90;99.90;;;;;;5053544;28;20025;-51
2022/05/26 08:19:39;;;;;;;3.70;1.70;;;18.00;99.90;;;;;;5053251;28;20028;-52
2022/05/26 08:22:05;;;;;;;5.40;2.30;;;18.00;99.90;;;;;;5053445;28;20083;-51
2022/05/26 08:24:31;;;;;;;4.03;2.22;;;18.20;99.90;;;;;;5053482;28;20021;-51
2022/05/26 08:26:57;;;;;;;4.28;2.30;;;18.20;99.90;;;;;;5053437;28;20329;-52
2022/05/26 08:29:23;;;;;;;7.50;2.10;;;18.40;99.90;;;;;;5052490;28;20025;-51
2022/05/26 08:31:48;;;;;;;5.57;2.38;;;18.50;99.90;;;;;;5053170;28;20057;-52
2022/05/26 08:34:14;;;;;;;6.57;1.50;;;18.50;99.90;;;;;;5053163;28;20025;-52
2022/05/26 08:36:40;;;;;;;3.50;1.02;;;18.60;99.90;;;;;;5052960;28;20028;-52
2022/05/26 08:39:06;;;;;;;3.75;1.80;;;18.90;99.90;;;;;;5053131;28;20028;-52
2022/05/26 08:41:42;;;;;;;3.78;1.85;;;19.00;99.90;;;;;;5053235;28;20017;-52
2022/05/26 08:44:30;;;;;;;3.03;1.02;;;18.90;99.90;;;;;;5052627;28;20021;-51
2022/05/26 08:47:15;;;;;;;3.77;1.70;;;18.90;99.90;;;;;;5053353;28;20037;-50
2022/05/26 08:49:42;;;;;;;5.80;1.70;;;18.80;99.90;;;;;;5052990;28;20542;-51
2022/05/26 08:52:10;;;;;;;4.43;1.40;;;18.60;99.90;;;;;;5052865;28;20037;-50
2022/05/26 08:55:03;;;;;;;2.47;1.38;;;18.70;99.90;;;;;;5052399;28;20048;-50
2022/05/26 08:57:53;;;;;;;5.13;1.63;;;18.60;99.90;;;;;;5052776;28;20056;-50
2022/05/26 09:00:22;;;;;;;5.30;0.93;;;18.60;99.90;;;;;;5053376;28;20364;-51
2022/05/26 09:02:58;;;;;;;3.40;1.10;;;18.50;99.90;;;;;;5052481;28;20048;-50
2022/05/26 09:05:24;;;;;;;4.07;1.38;;;18.50;99.90;;;;;;5052777;28;20526;-50
2022/05/26 09:13:54;;;;;;;4.18;1.52;;;18.40;99.90;;;;;;5052637;28;20052;-51
2022/05/26 09:16:20;;;;;;;;;;;18.60;99.90;;;;;;5052142;28;20032;-51
2022/05/26 09:19:15;;;;;;;3.00;1.42;;;18.60;99.90;;;;;;5052202;28;19950;-51
2022/05/26 09:21:42;;;;;;;3.80;1.42;;;18.70;99.90;;;;;;5052458;28;20028;-53
2022/05/26 09:24:22;;;;;;;2.67;1.15;;;18.70;99.90;;;;;;5051970;28;20033;-50
2022/05/26 09:26:57;;;;;;;6.13;1.10;;;18.80;99.90;;;;;;5052374;28;20055;-50
2022/05/26 09:29:36;;;;;;;9.00;1.50;;;18.70;99.90;;;;;;5051771;28;20455;-51
2022/05/26 09:32:03;;;;;;;3.45;0.90;;;18.70;99.90;;;;;;5051943;28;20138;-50
2022/05/26 09:34:34;;;;;;;1.58;0.50;;;18.70;99.90;;;;;;5051635;28;20028;-52
2022/05/26 09:37:05;;;;;;;6.15;0.82;;;18.70;98.80;;;;;;5052028;28;20503;-50
2022/05/26 09:39:42;;;;;;;3.13;0.70;;;18.70;99.90;;;;;;5051846;28;20051;-52
2022/05/26 09:42:17;;;;;;;11.20;1.10;;;18.90;99.40;;;;;;5051937;28;20053;-51
2022/05/26 09:44:54;;;;;;;2.75;0.70;;;19.20;99.40;;;;;;5051681;28;20120;-52
2022/05/26 09:47:45;;;;;;;2.95;0.98;;;19.50;95.60;;;;;;5052085;28;20025;-52
2022/05/26 09:50:36;;;;;;;3.33;0.73;;;19.60;94.90;;;;;;5051885;28;20033;-51
2022/05/26 09:53:05;;;;;;;1.75;0.80;;;19.50;94.30;;;;;;5051033;28;20086;-51
2022/05/26 09:55:32;;;;;;;3.50;1.20;;;19.50;94.70;;;;;;5051866;28;20078;-51
2022/05/26 09:58:12;;;;;;;;;;;19.50;97.70;;;;;;5052003;28;20439;-52
2022/05/26 10:00:46;;;;;;;2.08;0.95;;;19.30;99.70;;;;;;5051753;28;19909;-51
2022/05/26 10:03:41;;;;;;;2.45;0.60;;;19.30;92.50;;;;;;5051217;28;20040;-51
2022/05/26 10:06:27;;;;;;;3.40;0.80;;;19.20;93.80;;;;;;5051880;28;20071;-50
2022/05/26 10:09:17;;;;;;;3.92;0.77;;;19.10;95.10;;;;;;5051472;28;20025;-51
2022/05/26 10:12:08;;;;;;;4.22;1.00;;;19.10;94.20;;;;;;5051547;28;20036;-51
2022/05/26 10:14:39;;;;;;;2.88;0.80;;;19.10;94.60;;;;;;5051652;28;20539;-51
2022/05/26 10:17:27;;;;;;;3.67;0.75;;;19.20;94.10;;;;;;5051695;28;20392;-51
2022/05/26 10:20:11;;;;;;;;;;;19.50;95.00;;;;;;5051801;28;20426;-50
2022/05/26 10:22:49;;;;;;;2.13;0.80;;;19.60;95.70;;;;;;5051159;28;19904;-51
2022/05/26 10:25:26;;;;;;;3.45;0.68;;;19.60;94.40;;;;;;5051693;28;20059;-51
2022/05/26 10:28:23;;;;;;;3.45;0.70;;;19.60;94.70;;;;;;5051035;28;20041;-53
2022/05/26 10:31:22;;;;;;;7.07;0.98;;;19.60;95.10;;;;;;5050871;28;20385;-52
2022/05/26 10:34:14;;;;;;;3.28;1.20;;;19.40;96.40;;;;;;5050843;28;20071;-51
2022/05/26 10:37:02;;;;;;;3.15;1.00;;;19.40;97.20;;;;;;5051182;28;20048;-50
2022/05/26 10:39:36;;;;;;;3.72;0.88;;;19.10;98.30;;;;;;5051098;28;20017;-51
2022/05/26 10:42:07;;;;;;;3.55;0.88;;;19.00;96.30;;;;;;5051401;28;20091;-52
2022/05/26 10:44:45;;;;;;;5.03;1.15;;;18.90;96.10;;;;;;5051161;28;20396;-50
2022/05/26 10:47:17;;;;;;;2.90;0.98;;;18.90;97.60;;;;;;5051084;28;20047;-51
2022/05/26 10:50:06;;;;;;;6.68;1.13;;;19.10;97.90;;;;;;5050973;28;20032;-52
2022/05/26 10:52:44;;;;;;;1.55;0.70;;;19.20;97.40;;;;;;5051077;28;20047;-51
2022/05/26 10:55:18;;;;;;;6.15;1.10;;;19.10;97.60;;;;;;5051007;28;20036;-52
2022/05/26 10:57:59;;;;;;;2.63;0.70;;;18.90;97.90;;;;;;5050938;28;20075;-52
2022/05/26 11:00:28;;;;;;;4.55;0.90;;;18.90;98.20;;;;;;5050838;28;20025;-50
2022/05/26 11:03:13;;;;;;;6.05;1.05;;;18.70;98.90;;;;;;5050969;28;20420;-53
2022/05/26 11:05:58;;;;;;;5.82;0.90;;;18.70;99.70;;;;;;5051180;28;20025;-50
2022/05/26 11:08:44;;;;;;;2.67;1.05;;;18.70;99.90;;;;;;5050906;28;20063;-52
2022/05/26 11:11:26;;;;;;;2.72;0.80;;;18.80;99.90;;;;;;5050613;28;20455;-52
2022/05/26 11:17:21;;;;;;;2.90;0.85;;;19.10;99.90;;;;;;5050716;28;20044;-51
2022/05/26 11:17:23;;;;;;;3.83;1.48;;;19.30;99.90;;;;;;5050909;28;20475;-51
2022/05/26 11:20:14;;;;;;;2.90;0.70;;;19.30;98.60;;;;;;5050392;28;20112;-50
2022/05/26 11:22:46;;;;;;;3.75;1.10;;;19.20;98.50;;;;;;5050988;28;20087;-52
2022/05/26 11:25:32;;;;;;;2.15;0.75;;;19.20;99.80;;;;;;5050685;28;20032;-52
2022/05/26 11:28:40;;;;;;;2.95;0.98;;;19.20;99.90;;;;;;5050460;28;20029;-52
2022/05/26 11:36:51;;;;;;;4.80;0.85;;;19.50;99.20;;;;;;5050827;28;20063;-52
2022/05/26 11:39:29;;;;;;;10.00;1.52;;;19.40;97.90;;;;;;5051454;28;20028;-52
2022/05/26 11:42:00;;;;;;;3.70;1.15;;;19.40;99.90;;;;;;5054451;28;20540;-51
2022/05/26 11:44:41;;;;;;;3.25;0.70;;;19.60;99.90;;;;;;5054194;28;20460;-52
2022/05/26 11:47:44;;;;;;;7.32;1.00;;;19.80;97.40;;;;;;5055331;22;20056;-82
2022/05/26 11:50:42;;;;;;;4.07;1.10;;;19.90;97.90;;;;;;5048367;28;20018;-81
2022/05/26 11:53:40;;;;;;;2.33;0.90;;;20.20;96.40;;;;;;5027468;28;20064;-81
2022/05/26 11:56:30;;;;;;;2.33;1.00;;;20.20;96.80;;;;;;5022397;28;20026;-82
2022/05/26 11:59:21;;;;;;;2.33;1.00;;;19.80;96.60;;;;;;5048623;28;20075;-81
2022/05/26 12:02:07;;;;;;;3.08;1.05;;;19.60;97.70;;;;;;5048074;28;20029;-81
2022/05/26 12:04:39;;;;;;;3.35;0.90;;;19.40;99.90;;;;;;5035975;28;20029;-82
2022/05/26 12:07:14;;;;;;;6.80;1.60;;;19.30;98.20;;;;;;5036264;28;20033;-82
2022/05/26 12:09:43;;;;;;;6.75;1.50;;;19.20;99.90;;;;;;5031463;28;20022;-82
2022/05/26 12:12:16;;;;;;;4.43;1.45;;;19.20;99.70;;;;;;5047325;28;20034;-81
2022/05/26 12:15:03;;;;;;;6.50;1.30;;;19.30;99.90;;;;;;5052019;28;20497;-81
2022/05/26 12:17:45;;;;;;;5.68;1.38;;;19.50;99.90;;;;;;5046293;28;20480;-81
2022/05/26 12:20:11;;;;;;;4.65;1.05;;;19.60;99.90;;;;;;5046746;28;20565;-81
2022/05/26 12:22:49;;;;;;;2.35;0.80;;;19.60;99.90;;;;;;5046510;28;20030;-82
2022/05/26 12:25:15;;;;;;;1.95;0.98;;;19.50;99.90;;;;;;5045951;28;20033;-82
2022/05/26 12:27:54;;;;;;;3.90;0.85;;;19.40;99.50;;;;;;5046618;28;20029;-85
2022/05/26 12:30:44;;;;;;;2.78;0.93;;;19.40;99.90;;;;;;5046557;28;20392;-84
2022/05/26 12:33:20;;;;;;;8.75;2.03;;;19.30;99.90;;;;;;5046334;28;20029;-81
2022/05/26 12:36:24;;;;;;;1.85;0.90;;;19.30;99.90;;;;;;5046251;28;20083;-80
2022/05/26 12:38:50;;;;;;;4.55;1.15;;;19.30;99.90;;;;;;5046119;28;20025;-80
2022/05/26 12:41:28;;;;;;;3.35;1.05;;;19.20;99.90;;;;;;5046399;28;20476;-81
2022/05/26 12:44:19;;;;;;;3.00;1.05;;;19.20;99.90;;;;;;5046157;28;20377;-81
2022/05/26 12:46:52;;;;;;;4.43;1.02;;;19.20;99.90;;;;;;5047737;28;20115;-81
2022/05/26 12:49:52;;;;;;;3.45;1.08;;;19.20;99.90;;;;;;5052007;28;20029;-80
2022/05/26 12:52:57;;;;;;;5.22;1.15;;;19.20;99.90;;;;;;5046026;28;20025;-81
2022/05/26 12:55:38;;;;;;;7.57;2.05;;;19.40;99.90;;;;;;4991464;28;20588;-82
2022/05/26 12:58:09;;;;;;;3.65;1.15;;;19.60;99.90;;;;;;5008153;28;20040;-81
2022/05/26 13:00:44;;;;;;;5.90;1.45;;;19.70;99.90;;;;;;5029637;28;20546;-82
2022/05/26 13:03:20;;;;;;;3.67;1.40;;;19.80;99.90;;;;;;5045912;28;20022;-81
2022/05/26 13:06:10;;;;;;;4.75;0.93;;;20.10;99.90;;;;;;5045563;28;20022;-82
2022/05/26 13:09:34;;;;;;;8.00;0.88;;;20.30;99.90;;;;;;5045773;28;20022;-84
2022/05/26 13:12:04;;;;;;;0.93;0.50;;;20.60;99.90;;;;;;4988358;28;20093;-83
2022/05/26 13:14:35;;;;;;;3.63;1.00;;;20.50;99.60;;;;;;4972462;28;20101;-81
2022/05/26 13:17:10;;;;;;;1.48;0.68;;;20.50;99.90;;;;;;5012347;28;20124;-81
2022/05/26 13:19:52;;;;;;;1.80;0.60;;;20.30;98.70;;;;;;5030762;28;20044;-81
2022/05/26 13:22:33;;;;;;;3.53;0.60;;;20.30;98.80;;;;;;5047450;28;20064;-82
2022/05/26 13:25:01;;;;;;;0.75;0.60;;;20.10;99.80;;;;;;5046646;28;20017;-81
2022/05/26 13:27:49;;;;;;;5.38;0.65;;;19.90;98.00;;;;;;5030594;28;20362;-82
2022/05/26 13:33:09;;;;;;;0.88;0.47;;;19.80;99.60;;;;;;5030706;28;20079;-82
2022/05/26 13:35:47;;;;;;;4.13;0.80;;;19.70;99.40;;;;;;5045298;28;20031;-80
2022/05/26 13:38:28;;;;;;;5.50;1.05;;;19.80;99.60;;;;;;5029209;28;20033;-81
2022/05/26 13:40:56;;;;;;;3.58;0.80;;;19.90;99.90;;;;;;5045872;28;20026;-81
2022/05/26 13:43:22;;;;;;;1.90;0.75;;;19.90;99.20;;;;;;5045444;28;20021;-81
2022/05/26 13:45:48;;;;;;;4.03;0.80;;;20.10;98.90;;;;;;5045291;28;20025;-82
2022/05/26 13:48:26;;;;;;;4.60;0.63;;;20.40;99.00;;;;;;5029433;28;20073;-82
2022/05/26 13:50:55;;;;;;;1.13;0.70;;;20.60;99.90;;;;;;5046294;28;20029;-81
2022/05/26 13:53:21;;;;;;;6.07;0.98;;;20.80;99.00;;;;;;5045677;28;20033;-82